createdAt,value
2019-06-07T00:01:05.321Z,17.51
2019-06-07T00:06:07.826Z,17.49
2019-06-07T00:11:14.987Z,17.44
2019-06-07T00:16:16.996Z,17.42
2019-06-07T00:21:20.145Z,17.21
2019-06-07T00:26:21.436Z,17.04
2019-06-07T00:31:24.771Z,16.97
2019-06-07T00:36:26.603Z,16.99
2019-06-07T00:41:28.165Z,17.03
2019-06-07T00:46:29.712Z,17.00
2019-06-07T00:51:49.433Z,17.03
2019-06-07T00:56:34.836Z,17.06
2019-06-07T01:01:36.551Z,16.98
2019-06-07T01:06:38.226Z,16.89
2019-06-07T01:11:39.870Z,16.69
2019-06-07T01:16:56.604Z,16.61
2019-06-07T01:21:45.117Z,16.65
2019-06-07T01:26:46.656Z,16.71
2019-06-07T01:31:48.222Z,16.78
2019-06-07T01:36:49.788Z,16.78
2019-06-07T01:41:51.400Z,16.77
2019-06-07T01:46:52.883Z,16.79
2019-06-07T01:51:54.582Z,16.72
2019-06-07T01:56:56.139Z,16.48
2019-06-07T02:01:57.698Z,16.36
2019-06-07T02:06:59.260Z,16.34
2019-06-07T02:12:00.850Z,16.37
2019-06-07T02:17:02.569Z,16.39
2019-06-07T02:22:04.301Z,16.39
2019-06-07T02:27:05.827Z,16.45
2019-06-07T02:32:07.390Z,16.28
2019-06-07T02:37:09.073Z,16.21
2019-06-07T02:42:10.642Z,16.15
2019-06-07T02:47:12.229Z,16.17
2019-06-07T02:52:13.825Z,16.13
2019-06-07T02:57:15.401Z,16.03
2019-06-07T03:02:17.223Z,16.10
2019-06-07T03:07:18.945Z,16.15
2019-06-07T03:12:21.607Z,16.17
2019-06-07T03:18:01.283Z,16.12
2019-06-07T03:23:04.052Z,16.20
2019-06-07T03:28:05.646Z,16.21
2019-06-07T03:33:07.218Z,16.26
2019-06-07T03:38:08.805Z,16.34
2019-06-07T03:43:10.476Z,16.41
2019-06-07T03:48:12.046Z,16.49
2019-06-07T03:53:13.613Z,16.49
2019-06-07T03:58:31.185Z,16.45
2019-06-07T04:03:33.509Z,16.36
2019-06-07T04:08:22.171Z,16.25
2019-06-07T04:13:23.772Z,16.23
2019-06-07T04:18:25.362Z,16.22
2019-06-07T04:23:29.859Z,16.23
2019-06-07T04:29:25.998Z,16.24
2019-06-07T04:33:36.338Z,16.26
2019-06-07T04:38:40.594Z,16.24
2019-06-07T04:43:42.881Z,16.31
2019-06-07T04:48:45.083Z,16.31
2019-06-07T04:53:46.643Z,16.33
2019-06-07T04:58:48.196Z,16.32
2019-06-07T05:09:08.202Z,16.39
2019-06-07T05:14:09.896Z,16.46
2019-06-07T05:19:11.576Z,16.60
2019-06-07T05:24:13.139Z,16.71
2019-06-07T05:29:14.802Z,16.92
2019-06-07T05:34:16.624Z,16.93
2019-06-07T05:39:18.186Z,17.13
2019-06-07T05:44:19.757Z,17.17
2019-06-07T05:49:21.420Z,17.32
2019-06-07T05:54:22.968Z,17.39
2019-06-07T05:59:24.523Z,17.46
2019-06-07T06:04:26.096Z,17.65
2019-06-07T06:09:27.860Z,17.79
2019-06-07T06:14:29.429Z,17.71
2019-06-07T06:19:30.992Z,17.65
2019-06-07T06:24:32.561Z,17.54
2019-06-07T06:29:34.121Z,17.43
2019-06-07T06:34:39.441Z,17.36
2019-06-07T06:39:39.564Z,17.42
2019-06-07T06:44:43.821Z,17.59
2019-06-07T06:49:46.865Z,17.71
2019-06-07T06:54:55.374Z,17.85
2019-06-07T06:59:52.841Z,17.91
2019-06-07T07:04:54.510Z,18.21
2019-06-07T07:09:59.282Z,18.43
2019-06-07T07:14:59.609Z,18.38
2019-06-07T07:20:01.180Z,18.31
2019-06-07T07:25:03.741Z,18.32
2019-06-07T07:30:35.291Z,18.28
2019-06-07T07:35:09.620Z,18.18
2019-06-07T07:40:55.298Z,18.24
2019-06-07T07:45:15.176Z,18.22
2019-06-07T07:50:16.892Z,18.16
2019-06-07T07:55:18.630Z,18.20
2019-06-07T08:05:41.621Z,18.74
2019-06-07T08:10:27.808Z,19.10
2019-06-07T08:15:29.364Z,19.45
2019-06-07T08:20:31.058Z,19.62
2019-06-07T08:25:33.903Z,19.96
2019-06-07T08:30:50.192Z,19.96
2019-06-07T08:40:42.685Z,19.84
2019-06-07T08:45:44.359Z,19.81
2019-06-07T08:50:45.933Z,19.87
2019-06-07T08:55:47.532Z,20.13
2019-06-07T09:00:49.088Z,20.34
2019-06-07T09:05:53.363Z,20.56
2019-06-07T09:10:56.594Z,20.84
2019-06-07T09:16:03.416Z,20.91
2019-06-07T09:21:07.067Z,21.03
2019-06-07T09:26:15.633Z,21.16
2019-06-07T09:31:10.399Z,21.33
2019-06-07T09:36:13.282Z,21.46
2019-06-07T09:41:15.235Z,21.37
2019-06-07T09:46:17.107Z,21.00
2019-06-07T09:51:20.440Z,20.81
2019-06-07T09:56:22.356Z,20.56
2019-06-07T10:01:23.944Z,20.60
2019-06-07T10:06:25.641Z,20.60
2019-06-07T10:11:27.203Z,20.96
2019-06-07T10:16:28.837Z,21.32
2019-06-07T10:21:30.433Z,21.79
2019-06-07T10:26:32.004Z,21.97
2019-06-07T10:31:33.549Z,21.83
2019-06-07T10:36:35.217Z,21.95
2019-06-07T10:41:37.121Z,22.43
2019-06-07T10:46:38.757Z,22.67
2019-06-07T10:51:40.313Z,22.87
2019-06-07T11:12:59.377Z,22.45
2019-06-07T11:18:00.977Z,22.55
2019-06-07T11:23:02.605Z,22.80
2019-06-07T11:28:04.270Z,22.91
2019-06-07T12:10:21.206Z,23.14
2019-06-07T12:15:20.917Z,23.07
2019-06-07T12:25:45.323Z,39.25
2019-06-07T12:30:47.065Z,31.53
2019-06-07T12:35:48.655Z,27.15
2019-06-07T12:40:57.643Z,25.99
2019-06-07T12:45:53.857Z,31.96
2019-06-07T12:50:55.405Z,36.41
2019-06-07T12:55:59.991Z,29.78
2019-06-07T13:01:00.569Z,27.55
2019-06-07T13:06:02.180Z,31.40
2019-06-07T13:11:15.708Z,27.29
2019-06-07T13:16:07.546Z,26.42
2019-06-07T13:21:09.098Z,25.33
2019-06-07T13:26:10.646Z,25.08
2019-06-07T13:31:12.239Z,33.68
2019-06-07T13:36:13.785Z,34.97
2019-06-07T13:41:30.246Z,32.93
2019-06-07T13:46:20.862Z,29.09
2019-06-07T13:51:23.313Z,31.35
2019-06-07T13:56:26.192Z,28.64
2019-06-07T14:01:29.022Z,29.61
2019-06-07T14:06:30.782Z,28.79
2019-06-07T14:11:49.406Z,29.14
2019-06-07T14:16:35.969Z,34.33
2019-06-07T14:21:37.550Z,40.90
2019-06-07T14:26:41.979Z,43.08
2019-06-07T14:31:43.706Z,44.64
2019-06-07T14:36:45.273Z,44.23
2019-06-07T14:41:46.845Z,44.23
2019-06-07T14:46:48.415Z,44.97
2019-06-07T14:51:49.999Z,43.74
2019-06-07T14:56:51.547Z,44.89
2019-06-07T15:01:53.162Z,45.24
2019-06-07T15:06:54.759Z,43.23
2019-06-07T15:11:56.373Z,43.82
2019-06-07T15:16:57.996Z,44.19
2019-06-07T15:21:59.567Z,44.76
2019-06-07T15:27:01.139Z,44.65
2019-06-07T15:32:02.954Z,44.36
2019-06-07T15:37:04.634Z,43.17
2019-06-07T15:42:06.170Z,42.07
2019-06-07T15:47:07.757Z,41.05
2019-06-07T15:52:09.456Z,40.27
2019-06-07T15:57:10.998Z,39.66
2019-06-07T16:02:12.678Z,38.71
2019-06-07T16:07:14.336Z,37.99
2019-06-07T16:12:15.966Z,37.20
2019-06-07T16:17:17.541Z,36.88
2019-06-07T16:22:19.096Z,36.44
2019-06-07T16:27:20.658Z,35.32
2019-06-07T16:32:22.238Z,33.23
2019-06-07T16:37:23.806Z,31.71
2019-06-07T16:42:25.391Z,30.14
2019-06-07T16:47:26.946Z,29.71
2019-06-07T16:52:28.592Z,29.93
2019-06-07T16:57:30.174Z,30.08
2019-06-07T17:02:31.715Z,29.94
2019-06-07T17:07:33.333Z,30.53
2019-06-07T17:12:35.114Z,30.90
2019-06-07T17:17:36.766Z,31.11
2019-06-07T17:22:39.059Z,30.96
2019-06-07T17:27:42.049Z,30.39
2019-06-07T17:32:55.081Z,30.20
2019-06-07T17:37:48.210Z,29.99
2019-06-07T17:42:51.077Z,29.76
2019-06-07T17:47:52.930Z,29.54
2019-06-07T17:52:54.606Z,29.40
2019-06-07T17:57:56.278Z,29.33
2019-06-07T18:02:57.844Z,29.13
2019-06-07T18:07:59.910Z,28.93
2019-06-07T18:13:01.560Z,28.59
2019-06-07T18:18:03.723Z,28.23
2019-06-07T18:23:05.514Z,27.93
2019-06-07T18:28:07.328Z,27.58
2019-06-07T18:33:09.176Z,27.16
2019-06-07T18:38:11.238Z,26.75
2019-06-07T18:43:12.897Z,26.40
2019-06-07T18:48:14.631Z,26.03
2019-06-07T18:53:16.210Z,25.71
2019-06-07T18:58:17.754Z,25.20
2019-06-07T19:03:19.319Z,24.72
2019-06-07T19:08:20.872Z,24.52
2019-06-07T19:13:22.428Z,24.30
2019-06-07T19:18:23.989Z,24.05
2019-06-07T19:23:25.531Z,23.79
2019-06-07T19:28:27.099Z,23.59
2019-06-07T19:33:28.657Z,23.44
2019-06-07T19:38:30.238Z,23.32
2019-06-07T19:43:31.796Z,23.25
2019-06-07T19:48:33.371Z,23.12
2019-06-07T19:53:34.911Z,22.98
2019-06-07T19:58:36.486Z,22.73
2019-06-07T20:03:38.046Z,22.73
2019-06-07T20:08:39.595Z,22.63
2019-06-07T20:13:41.286Z,22.53
2019-06-07T20:18:42.943Z,22.44
2019-06-07T20:23:44.489Z,22.41
2019-06-07T20:28:46.133Z,22.37
2019-06-07T20:33:47.693Z,22.28
2019-06-07T20:38:49.254Z,22.31
2019-06-07T20:43:50.823Z,22.27
2019-06-07T20:48:52.420Z,22.19
2019-06-07T20:53:53.976Z,22.17
2019-06-07T20:58:55.530Z,22.13
2019-06-07T21:03:57.100Z,21.94
2019-06-07T21:08:59.327Z,21.94
2019-06-07T21:14:02.021Z,21.87
2019-06-07T21:19:04.194Z,21.84
2019-06-07T21:24:06.793Z,21.75
2019-06-07T21:29:09.337Z,21.70
2019-06-07T21:34:14.015Z,21.68
2019-06-07T21:39:14.598Z,21.66
2019-06-07T21:44:16.151Z,21.62
2019-06-07T21:49:17.709Z,21.62
2019-06-07T21:54:19.265Z,21.58
2019-06-07T21:59:20.822Z,21.61
2019-06-07T22:04:22.376Z,21.55
2019-06-07T22:09:23.964Z,21.48
2019-06-07T22:14:25.616Z,21.43
2019-06-07T22:19:27.249Z,21.39
2019-06-07T22:24:28.818Z,21.30
2019-06-07T22:29:30.397Z,21.19
2019-06-07T22:34:31.981Z,21.10
2019-06-07T22:39:33.561Z,21.02
2019-06-07T22:44:35.119Z,20.99
2019-06-07T22:49:36.667Z,20.76
2019-06-07T22:54:38.247Z,20.66
2019-06-07T22:59:39.812Z,20.58
2019-06-07T23:04:41.404Z,20.49
2019-06-07T23:09:42.978Z,20.33
2019-06-07T23:14:44.582Z,20.21
2019-06-07T23:19:46.149Z,20.11
2019-06-07T23:24:47.704Z,20.11
2019-06-07T23:29:49.264Z,19.92
2019-06-07T23:34:50.818Z,19.74
2019-06-07T23:39:52.411Z,19.60
2019-06-07T23:44:54.094Z,19.59
2019-06-07T23:49:55.654Z,19.53
2019-06-07T23:54:57.209Z,19.49
2019-06-07T23:59:58.766Z,19.35
